createdAt,value
2023-05-24T00:01:52.802Z,11.44
2023-05-24T00:04:21.118Z,11.45
2023-05-24T00:06:49.492Z,11.46
2023-05-24T00:09:17.756Z,11.49
2023-05-24T00:11:47.330Z,11.51
2023-05-24T00:14:15.536Z,11.54
2023-05-24T00:16:43.826Z,11.56
2023-05-24T00:19:12.129Z,11.60
2023-05-24T00:21:40.512Z,11.62
2023-05-24T00:24:11.169Z,11.65
2023-05-24T00:26:39.345Z,11.68
2023-05-24T00:29:09.257Z,11.71
2023-05-24T00:31:40.170Z,11.71
2023-05-24T00:34:08.543Z,11.75
2023-05-24T00:36:38.383Z,11.77
2023-05-24T00:39:06.667Z,11.80
2023-05-24T00:41:35.153Z,11.81
2023-05-24T00:44:03.611Z,11.81
2023-05-24T00:46:34.701Z,11.84
2023-05-24T00:49:03.124Z,11.86
2023-05-24T00:51:32.656Z,11.89
2023-05-24T00:54:01.027Z,11.89
2023-05-24T00:56:31.333Z,11.94
2023-05-24T00:59:00.113Z,11.94
2023-05-24T01:01:31.079Z,11.94
2023-05-24T01:04:01.632Z,11.95
2023-05-24T01:06:31.084Z,11.95
2023-05-24T01:09:15.257Z,11.96
2023-05-24T01:11:54.596Z,11.96
2023-05-24T01:14:30.473Z,11.97
2023-05-24T01:17:05.807Z,11.94
2023-05-24T01:19:57.667Z,11.92
2023-05-24T01:22:39.326Z,11.90
2023-05-24T01:25:14.331Z,11.87
2023-05-24T01:27:44.787Z,11.86
2023-05-24T01:30:14.604Z,11.83
2023-05-24T01:32:43.345Z,11.80
2023-05-24T01:35:11.749Z,11.76
2023-05-24T01:37:39.874Z,11.72
2023-05-24T01:40:10.516Z,11.68
2023-05-24T01:42:46.051Z,11.64
2023-05-24T01:45:20.985Z,11.58
2023-05-24T01:48:03.324Z,11.55
2023-05-24T01:50:35.783Z,11.50
2023-05-24T01:53:07.958Z,11.46
2023-05-24T01:55:38.078Z,11.42
2023-05-24T01:58:09.124Z,11.38
2023-05-24T02:00:37.795Z,11.35
2023-05-24T02:03:06.618Z,11.32
2023-05-24T02:05:35.036Z,11.28
2023-05-24T02:08:07.264Z,11.23
2023-05-24T02:10:38.388Z,11.20
2023-05-24T02:13:09.203Z,11.16
2023-05-24T02:15:37.451Z,11.11
2023-05-24T02:18:08.178Z,11.07
2023-05-24T02:20:37.956Z,11.03
2023-05-24T02:23:06.519Z,11.02
2023-05-24T02:25:34.777Z,10.97
2023-05-24T02:28:03.068Z,10.96
2023-05-24T02:30:32.579Z,10.95
2023-05-24T02:33:01.014Z,10.91
2023-05-24T02:35:29.310Z,10.89
2023-05-24T02:37:58.741Z,10.83
2023-05-24T02:40:27.287Z,10.82
2023-05-24T02:42:55.485Z,10.80
2023-05-24T02:45:23.646Z,10.74
2023-05-24T02:47:53.203Z,10.69
2023-05-24T02:50:21.530Z,10.64
2023-05-24T02:52:49.714Z,10.60
2023-05-24T02:55:18.361Z,10.57
2023-05-24T02:57:48.181Z,10.53
2023-05-24T03:00:18.761Z,10.50
2023-05-24T03:02:51.139Z,10.46
2023-05-24T03:05:21.210Z,10.44
2023-05-24T03:07:49.472Z,10.39
2023-05-24T03:10:17.963Z,10.37
2023-05-24T03:12:46.315Z,10.34
2023-05-24T03:15:14.625Z,10.29
2023-05-24T03:17:42.997Z,10.27
2023-05-24T03:20:12.610Z,10.21
2023-05-24T03:22:42.397Z,10.20
2023-05-24T03:25:11.215Z,10.17
2023-05-24T03:27:39.691Z,10.15
2023-05-24T03:30:09.445Z,10.13
2023-05-24T03:32:45.593Z,10.08
2023-05-24T03:35:13.961Z,10.03
2023-05-24T03:37:43.563Z,10.01
2023-05-24T03:40:12.248Z,9.98
2023-05-24T03:43:00.831Z,9.95
2023-05-24T03:45:44.398Z,9.93
2023-05-24T03:48:12.836Z,9.91
2023-05-24T03:50:41.273Z,9.91
2023-05-24T03:53:10.975Z,9.89
2023-05-24T03:55:40.009Z,9.88
2023-05-24T03:58:08.588Z,9.84
2023-05-24T04:00:37.069Z,9.83
2023-05-24T04:03:09.154Z,9.80
2023-05-24T04:05:37.561Z,9.79
2023-05-24T04:08:06.547Z,9.79
2023-05-24T04:10:36.139Z,9.76
2023-05-24T04:13:04.491Z,9.77
2023-05-24T04:15:38.016Z,9.81
2023-05-24T04:18:06.643Z,9.86
2023-05-24T04:20:36.718Z,9.89
2023-05-24T04:23:05.199Z,9.88
2023-05-24T04:25:33.704Z,9.90
2023-05-24T04:28:03.740Z,9.89
2023-05-24T04:30:33.838Z,9.90
2023-05-24T04:33:02.204Z,9.90
2023-05-24T04:35:31.330Z,9.91
2023-05-24T04:38:00.159Z,9.96
2023-05-24T04:40:28.535Z,10.03
2023-05-24T04:42:56.797Z,10.06
2023-05-24T04:45:26.513Z,10.10
2023-05-24T04:47:54.752Z,10.16
2023-05-24T04:50:22.895Z,10.15
2023-05-24T04:52:51.226Z,10.18
2023-05-24T04:55:19.445Z,10.21
2023-05-24T04:57:47.625Z,10.25
2023-05-24T05:00:16.984Z,10.28
2023-05-24T05:02:46.727Z,10.34
2023-05-24T05:05:16.172Z,10.40
2023-05-24T05:07:44.243Z,10.48
2023-05-24T05:10:12.725Z,10.51
2023-05-24T05:12:41.712Z,10.59
2023-05-24T05:15:10.871Z,10.65
2023-05-24T05:17:39.252Z,10.71
2023-05-24T05:20:09.938Z,10.80
2023-05-24T05:22:38.154Z,10.87
2023-05-24T05:25:07.217Z,10.93
2023-05-24T05:27:35.661Z,10.99
2023-05-24T05:30:03.997Z,11.07
2023-05-24T05:32:32.633Z,11.14
2023-05-24T05:35:00.973Z,11.19
2023-05-24T05:37:31.324Z,11.26
2023-05-24T05:39:59.802Z,11.35
2023-05-24T05:42:27.997Z,11.42
2023-05-24T05:44:56.187Z,11.50
2023-05-24T05:47:24.418Z,11.56
2023-05-24T05:49:52.733Z,11.64
2023-05-24T05:52:20.940Z,11.72
2023-05-24T05:54:50.366Z,11.82
2023-05-24T05:57:24.092Z,11.88
2023-05-24T05:59:52.584Z,11.97
2023-05-24T06:02:22.759Z,12.04
2023-05-24T06:04:51.526Z,12.12
2023-05-24T06:07:20.262Z,12.17
2023-05-24T06:09:48.462Z,12.23
2023-05-24T06:12:18.053Z,12.29
2023-05-24T06:14:48.388Z,12.31
2023-05-24T06:17:16.617Z,12.37
2023-05-24T06:19:45.011Z,12.41
2023-05-24T06:22:13.189Z,12.44
2023-05-24T06:24:41.362Z,12.53
2023-05-24T06:27:09.609Z,12.62
2023-05-24T06:29:39.670Z,12.69
2023-05-24T06:32:08.008Z,12.77
2023-05-24T06:34:36.189Z,12.78
2023-05-24T06:37:04.872Z,12.81
2023-05-24T06:39:33.221Z,12.89
2023-05-24T06:42:01.999Z,12.89
2023-05-24T06:44:37.386Z,12.99
2023-05-24T06:47:09.470Z,13.10
2023-05-24T06:49:38.425Z,13.18
2023-05-24T06:52:08.572Z,13.19
2023-05-24T06:54:37.283Z,13.23
2023-05-24T06:57:06.316Z,13.35
2023-05-24T06:59:34.738Z,13.32
2023-05-24T07:02:04.070Z,13.44
2023-05-24T07:04:34.158Z,13.56
2023-05-24T07:07:04.564Z,13.55
2023-05-24T07:09:33.023Z,13.64
2023-05-24T07:12:02.595Z,13.75
2023-05-24T07:14:30.830Z,13.82
2023-05-24T07:16:59.992Z,13.89
2023-05-24T07:19:29.738Z,13.98
2023-05-24T07:21:59.743Z,14.13
2023-05-24T07:24:28.203Z,14.19
2023-05-24T07:26:57.653Z,14.30
2023-05-24T07:29:26.243Z,14.58
2023-05-24T07:31:56.841Z,14.70
2023-05-24T07:34:27.731Z,15.01
2023-05-24T07:36:55.913Z,15.43
2023-05-24T07:39:25.516Z,15.68
2023-05-24T07:41:53.995Z,15.79
2023-05-24T07:44:22.359Z,15.78
2023-05-24T07:46:51.086Z,16.07
2023-05-24T07:49:19.651Z,16.35
2023-05-24T07:51:48.066Z,16.42
2023-05-24T07:54:16.923Z,16.60
2023-05-24T07:56:47.343Z,16.89
2023-05-24T07:59:15.943Z,17.23
2023-05-24T08:01:44.063Z,17.32
2023-05-24T08:04:12.316Z,17.37
2023-05-24T08:06:40.521Z,17.70
2023-05-24T08:09:10.369Z,17.70
2023-05-24T08:11:38.524Z,17.86
2023-05-24T08:14:08.572Z,18.00
2023-05-24T08:16:37.170Z,18.00
2023-05-24T08:19:05.444Z,18.10
2023-05-24T08:21:34.225Z,18.39
2023-05-24T08:24:02.827Z,18.87
2023-05-24T08:26:33.738Z,18.70
2023-05-24T08:29:03.035Z,18.88
2023-05-24T08:31:33.519Z,18.84
2023-05-24T08:34:05.250Z,18.86
2023-05-24T08:36:34.211Z,19.03
2023-05-24T08:39:03.097Z,19.09
2023-05-24T08:41:33.221Z,18.83
2023-05-24T08:44:03.117Z,19.16
2023-05-24T08:46:36.240Z,19.06
2023-05-24T08:49:07.814Z,19.32
2023-05-24T08:51:42.434Z,19.56
2023-05-24T08:54:12.340Z,18.93
2023-05-24T08:56:45.588Z,19.00
2023-05-24T08:59:14.823Z,19.03
2023-05-24T09:01:45.636Z,19.29
2023-05-24T09:04:14.915Z,18.83
2023-05-24T09:06:43.862Z,19.12
2023-05-24T09:09:13.439Z,19.02
2023-05-24T09:11:43.878Z,19.55
2023-05-24T09:14:12.217Z,18.97
2023-05-24T09:16:41.754Z,19.03
2023-05-24T09:19:11.841Z,19.47
2023-05-24T09:21:40.722Z,19.34
2023-05-24T09:24:09.850Z,19.71
2023-05-24T09:26:38.499Z,19.66
2023-05-24T09:29:08.637Z,19.59
2023-05-24T09:31:38.515Z,19.69
2023-05-24T09:34:16.543Z,19.82
2023-05-24T09:36:59.557Z,19.67
2023-05-24T09:39:28.250Z,19.92
2023-05-24T09:41:57.464Z,20.03
2023-05-24T09:44:27.019Z,19.83
2023-05-24T09:46:56.376Z,20.01
2023-05-24T09:49:26.061Z,20.21
2023-05-24T09:51:54.345Z,19.76
2023-05-24T09:54:22.820Z,19.87
2023-05-24T09:56:53.250Z,19.66
2023-05-24T09:59:21.483Z,19.95
2023-05-24T10:01:54.147Z,19.90
2023-05-24T10:04:35.320Z,19.78
2023-05-24T10:07:03.949Z,19.49
2023-05-24T10:09:34.221Z,19.72
2023-05-24T10:12:07.533Z,19.63
2023-05-24T10:14:37.280Z,19.95
2023-05-24T10:17:07.117Z,20.02
2023-05-24T10:19:38.956Z,19.89
2023-05-24T10:22:09.073Z,19.91
2023-05-24T10:24:41.248Z,20.07
2023-05-24T10:27:14.792Z,20.04
2023-05-24T10:29:56.778Z,20.26
2023-05-24T10:32:25.420Z,20.02
2023-05-24T10:34:55.654Z,20.32
2023-05-24T10:37:27.764Z,20.41
2023-05-24T10:39:56.389Z,20.23
2023-05-24T10:42:24.765Z,20.61
2023-05-24T10:44:53.190Z,20.47
2023-05-24T10:47:22.157Z,20.50
2023-05-24T10:49:52.829Z,20.77
2023-05-24T10:52:22.835Z,20.81
2023-05-24T10:55:05.658Z,21.13
2023-05-24T10:57:34.137Z,21.08
2023-05-24T11:03:04.446Z,21.68
2023-05-24T11:05:52.985Z,22.02
2023-05-24T11:08:27.590Z,21.75
2023-05-24T11:11:23.191Z,21.68
2023-05-24T11:13:57.242Z,21.80
2023-05-24T11:16:36.339Z,21.74
2023-05-24T11:19:14.301Z,22.00
2023-05-24T11:21:44.818Z,21.60
2023-05-24T11:24:14.219Z,21.97
2023-05-24T11:26:42.603Z,22.14
2023-05-24T11:29:10.859Z,22.72
2023-05-24T11:31:43.156Z,22.47
2023-05-24T11:34:12.390Z,22.69
2023-05-24T11:36:41.281Z,23.07
2023-05-24T11:39:09.978Z,23.32
2023-05-24T11:41:41.405Z,23.34
2023-05-24T11:44:11.452Z,23.53
2023-05-24T11:46:41.534Z,23.67
2023-05-24T11:49:14.392Z,24.19
2023-05-24T11:51:43.294Z,24.09
2023-05-24T11:54:11.871Z,24.13
2023-05-24T11:56:41.758Z,24.57
2023-05-24T11:59:15.551Z,24.90
2023-05-24T12:01:44.425Z,25.05
2023-05-24T12:04:13.390Z,25.17
2023-05-24T12:06:43.852Z,25.09
2023-05-24T12:09:14.550Z,25.14
2023-05-24T12:11:45.626Z,24.95
2023-05-24T12:14:14.945Z,24.82
2023-05-24T12:16:43.889Z,24.93
2023-05-24T12:19:31.863Z,24.91
2023-05-24T12:22:02.016Z,24.62
2023-05-24T12:24:32.589Z,24.66
2023-05-24T12:27:06.828Z,24.56
2023-05-24T12:29:36.588Z,24.95
2023-05-24T12:32:06.629Z,24.91
2023-05-24T12:34:34.952Z,24.71
2023-05-24T12:37:04.040Z,24.74
2023-05-24T12:39:35.086Z,24.17
2023-05-24T12:42:06.147Z,23.52
2023-05-24T12:44:37.110Z,24.07
2023-05-24T12:47:08.452Z,23.94
2023-05-24T12:49:37.060Z,23.97
2023-05-24T12:52:07.146Z,24.28
2023-05-24T12:54:35.878Z,23.93
2023-05-24T12:57:06.302Z,23.92
2023-05-24T12:59:35.289Z,23.13
2023-05-24T13:02:03.890Z,23.36
2023-05-24T13:04:33.979Z,23.37
2023-05-24T13:07:03.337Z,23.52
2023-05-24T13:09:31.880Z,23.20
2023-05-24T13:12:00.193Z,22.92
2023-05-24T13:14:30.486Z,22.98
2023-05-24T13:16:59.023Z,22.81
2023-05-24T13:19:27.339Z,22.80
2023-05-24T13:21:55.846Z,22.59
2023-05-24T13:24:24.645Z,22.68
2023-05-24T13:26:55.041Z,22.64
2023-05-24T13:29:34.154Z,22.56
2023-05-24T13:32:09.544Z,22.31
2023-05-24T13:34:38.211Z,22.36
2023-05-24T13:37:07.913Z,22.38
2023-05-24T13:39:36.944Z,22.29
2023-05-24T13:42:05.734Z,22.03
2023-05-24T13:44:34.188Z,22.30
2023-05-24T13:47:03.340Z,22.19
2023-05-24T13:49:34.115Z,21.79
2023-05-24T13:52:02.915Z,21.91
2023-05-24T13:54:32.309Z,21.87
2023-05-24T13:57:00.902Z,21.80
2023-05-24T13:59:29.670Z,21.65
2023-05-24T14:01:57.966Z,21.36
2023-05-24T14:04:26.436Z,21.60
2023-05-24T14:06:56.456Z,21.78
2023-05-24T14:09:26.263Z,21.65
2023-05-24T14:11:54.941Z,21.63
2023-05-24T14:17:04.235Z,21.60
2023-05-24T14:19:33.789Z,21.57
2023-05-24T14:22:03.690Z,21.49
2023-05-24T14:24:31.855Z,21.38
2023-05-24T14:27:00.020Z,21.63
2023-05-24T14:29:28.235Z,21.46
2023-05-24T14:31:56.448Z,21.27
2023-05-24T14:34:24.593Z,21.40
2023-05-24T14:36:52.685Z,21.33
2023-05-24T14:39:22.218Z,21.44
2023-05-24T14:41:50.415Z,21.38
2023-05-24T14:44:19.233Z,21.44
2023-05-24T14:46:48.370Z,21.43
2023-05-24T14:49:16.477Z,21.41
2023-05-24T14:51:49.320Z,21.41
2023-05-24T14:54:17.937Z,21.41
2023-05-24T14:56:47.461Z,21.43
2023-05-24T14:59:16.119Z,21.34
2023-05-24T15:01:44.302Z,21.32
2023-05-24T15:04:12.437Z,21.44
2023-05-24T15:06:40.621Z,21.34
2023-05-24T15:09:08.710Z,21.32
2023-05-24T15:11:37.811Z,21.15
2023-05-24T15:14:07.475Z,21.29
2023-05-24T15:16:36.398Z,21.29
2023-05-24T15:19:04.753Z,21.33
2023-05-24T15:21:33.061Z,21.30
2023-05-24T15:24:01.206Z,21.25
2023-05-24T15:26:29.234Z,21.25
2023-05-24T15:29:01.160Z,21.18
2023-05-24T15:31:30.909Z,21.32
2023-05-24T15:33:59.126Z,21.21
2023-05-24T15:36:27.368Z,21.04
2023-05-24T15:38:55.556Z,21.16
2023-05-24T15:41:23.805Z,21.21
2023-05-24T15:43:52.514Z,21.11
2023-05-24T15:46:22.091Z,21.21
2023-05-24T15:48:51.637Z,21.11
2023-05-24T15:53:51.182Z,20.92
2023-05-24T15:56:19.569Z,21.04
2023-05-24T15:58:47.750Z,21.08
2023-05-24T16:01:16.239Z,21.06
2023-05-24T16:03:44.684Z,21.12
2023-05-24T16:06:14.217Z,21.27
2023-05-24T16:08:42.348Z,21.28
2023-05-24T16:11:10.742Z,21.19
2023-05-24T16:13:38.800Z,21.27
2023-05-24T16:16:07.378Z,21.37
2023-05-24T16:18:37.168Z,21.36
2023-05-24T16:21:05.606Z,21.41
2023-05-24T16:23:35.073Z,21.46
2023-05-24T16:26:03.358Z,21.61
2023-05-24T16:28:31.522Z,21.69
2023-05-24T16:31:02.501Z,22.13
2023-05-24T16:33:30.673Z,22.63
2023-05-24T16:36:02.744Z,23.22
2023-05-24T16:38:31.696Z,23.32
2023-05-24T16:41:02.376Z,23.65
2023-05-24T16:43:30.446Z,24.13
2023-05-24T16:45:58.604Z,24.37
2023-05-24T16:48:28.723Z,24.59
2023-05-24T16:50:57.700Z,24.91
2023-05-24T16:53:27.185Z,25.37
2023-05-24T16:55:56.386Z,25.67
2023-05-24T16:58:28.088Z,25.64
2023-05-24T17:00:56.580Z,25.55
2023-05-24T17:03:28.294Z,25.63
2023-05-24T17:06:02.045Z,25.63
2023-05-24T17:08:31.314Z,25.95
2023-05-24T17:10:59.558Z,26.45
2023-05-24T17:13:29.140Z,26.47
2023-05-24T17:15:58.107Z,25.47
2023-05-24T17:18:29.211Z,25.30
2023-05-24T17:20:59.100Z,25.15
2023-05-24T17:23:27.634Z,24.94
2023-05-24T17:25:56.504Z,25.92
2023-05-24T17:28:27.358Z,25.58
2023-05-24T17:30:58.174Z,25.41
2023-05-24T17:33:28.470Z,24.84
2023-05-24T17:35:57.731Z,24.77
2023-05-24T17:38:26.467Z,24.41
2023-05-24T17:40:57.093Z,24.07
2023-05-24T17:43:28.919Z,23.62
2023-05-24T17:46:03.671Z,23.94
2023-05-24T17:48:32.830Z,23.96
2023-05-24T17:51:02.067Z,23.65
2023-05-24T17:53:32.507Z,23.29
2023-05-24T17:56:01.076Z,22.97
2023-05-24T17:58:30.905Z,22.71
2023-05-24T18:01:00.790Z,22.59
2023-05-24T18:03:29.066Z,22.23
2023-05-24T18:05:57.713Z,22.20
2023-05-24T18:08:26.511Z,22.02
2023-05-24T18:10:54.792Z,21.85
2023-05-24T18:13:23.038Z,21.59
2023-05-24T18:15:51.502Z,21.55
2023-05-24T18:18:21.066Z,21.46
2023-05-24T18:20:49.314Z,21.38
2023-05-24T18:23:17.913Z,21.37
2023-05-24T18:25:46.414Z,21.24
2023-05-24T18:28:14.848Z,21.07
2023-05-24T18:30:43.450Z,20.98
2023-05-24T18:33:11.856Z,20.98
2023-05-24T18:35:42.204Z,20.84
2023-05-24T18:38:10.701Z,20.62
2023-05-24T18:40:38.954Z,20.30
2023-05-24T18:43:07.348Z,20.41
2023-05-24T18:45:35.798Z,20.16
2023-05-24T18:48:04.144Z,20.21
2023-05-24T18:50:32.484Z,20.11
2023-05-24T18:53:02.695Z,20.14
2023-05-24T18:55:31.071Z,20.03
2023-05-24T18:57:59.404Z,19.75
2023-05-24T19:00:28.296Z,19.73
2023-05-24T19:02:56.816Z,19.72
2023-05-24T19:05:25.147Z,19.53
2023-05-24T19:07:53.265Z,19.57
2023-05-24T19:10:23.064Z,19.47
2023-05-24T19:12:51.641Z,19.45
2023-05-24T19:15:19.923Z,19.36
2023-05-24T19:17:48.685Z,19.35
2023-05-24T19:20:16.899Z,19.22
2023-05-24T19:22:45.098Z,19.13
2023-05-24T19:25:13.348Z,19.21
2023-05-24T19:27:57.932Z,19.12
2023-05-24T19:30:27.854Z,18.92
2023-05-24T19:32:56.223Z,18.74
2023-05-24T19:35:24.877Z,18.73
2023-05-24T19:37:53.744Z,18.66
2023-05-24T19:40:22.231Z,18.47
2023-05-24T19:42:51.952Z,18.32
2023-05-24T19:45:22.292Z,18.16
2023-05-24T19:47:50.625Z,18.24
2023-05-24T19:50:19.582Z,18.01
2023-05-24T19:52:48.056Z,18.00
2023-05-24T19:55:16.685Z,17.89
2023-05-24T19:57:44.822Z,17.83
2023-05-24T20:00:15.269Z,17.83
2023-05-24T20:02:43.769Z,17.75
2023-05-24T20:05:11.967Z,17.65
2023-05-24T20:07:40.176Z,17.49
2023-05-24T20:10:09.752Z,17.44
2023-05-24T20:12:38.112Z,17.40
2023-05-24T20:15:10.173Z,17.39
2023-05-24T20:17:39.972Z,17.25
2023-05-24T20:20:09.461Z,17.19
2023-05-24T20:22:37.626Z,17.22
2023-05-24T20:25:06.537Z,16.99
2023-05-24T20:27:34.823Z,17.01
2023-05-24T20:30:03.493Z,17.01
2023-05-24T20:32:31.719Z,16.82
2023-05-24T20:35:01.593Z,16.76
2023-05-24T20:37:29.846Z,16.63
2023-05-24T20:39:58.005Z,16.73
2023-05-24T20:42:26.243Z,16.62
2023-05-24T20:44:54.318Z,16.37
2023-05-24T20:47:22.768Z,16.39
2023-05-24T20:49:50.913Z,16.37
2023-05-24T20:52:20.473Z,16.35
2023-05-24T20:54:48.733Z,16.17
2023-05-24T20:57:17.205Z,16.13
2023-05-24T20:59:45.474Z,16.17
2023-05-24T21:02:13.736Z,16.13
2023-05-24T21:04:41.933Z,16.08
2023-05-24T21:07:10.016Z,16.06
2023-05-24T21:09:39.528Z,16.03
2023-05-24T21:12:08.391Z,15.93
2023-05-24T21:14:36.561Z,15.92
2023-05-24T21:17:04.782Z,15.86
2023-05-24T21:19:33.130Z,15.72
2023-05-24T21:22:01.308Z,15.77
2023-05-24T21:24:29.582Z,15.61
2023-05-24T21:26:59.217Z,15.61
2023-05-24T21:29:27.522Z,15.50
2023-05-24T21:31:55.875Z,15.42
2023-05-24T21:34:23.927Z,15.48
2023-05-24T21:36:52.183Z,15.47
2023-05-24T21:39:21.080Z,15.44
2023-05-24T21:41:49.265Z,15.30
2023-05-24T21:44:19.552Z,15.21
2023-05-24T21:46:47.895Z,15.18
2023-05-24T21:49:17.268Z,15.18
2023-05-24T21:51:45.534Z,15.13
2023-05-24T21:54:13.603Z,15.07
2023-05-24T21:56:41.647Z,15.01
2023-05-24T21:59:09.640Z,14.95
2023-05-24T22:01:39.313Z,14.95
2023-05-24T22:04:07.712Z,14.94
2023-05-24T22:06:36.407Z,14.84
2023-05-24T22:09:04.572Z,14.71
2023-05-24T22:11:34.094Z,14.78
2023-05-24T22:14:02.380Z,14.76
2023-05-24T22:16:30.602Z,14.77
2023-05-24T22:19:01.146Z,14.69
2023-05-24T22:21:33.032Z,14.68
2023-05-24T22:24:01.721Z,14.62
2023-05-24T22:26:30.656Z,14.56
2023-05-24T22:29:03.593Z,14.56
2023-05-24T22:31:33.474Z,14.53
2023-05-24T22:34:03.177Z,14.51
2023-05-24T22:36:33.274Z,14.43
2023-05-24T22:39:01.898Z,14.42
2023-05-24T22:41:30.194Z,14.42
2023-05-24T22:43:58.745Z,14.43
2023-05-24T22:46:27.062Z,14.28
2023-05-24T22:48:56.767Z,14.33
2023-05-24T22:51:26.281Z,14.31
2023-05-24T22:53:54.810Z,14.24
2023-05-24T22:56:23.340Z,14.27
2023-05-24T22:58:53.249Z,14.19
2023-05-24T23:01:21.712Z,14.19
2023-05-24T23:03:49.761Z,14.19
2023-05-24T23:06:17.936Z,14.14
2023-05-24T23:08:47.956Z,14.15
2023-05-24T23:11:17.436Z,14.08
2023-05-24T23:13:45.879Z,14.08
2023-05-24T23:16:17.979Z,14.04
2023-05-24T23:18:46.272Z,13.97
2023-05-24T23:21:16.800Z,13.95
2023-05-24T23:23:46.282Z,13.88
2023-05-24T23:26:15.933Z,13.89
2023-05-24T23:28:44.350Z,13.91
2023-05-24T23:31:12.530Z,13.88
2023-05-24T23:33:40.535Z,13.84
2023-05-24T23:36:09.878Z,13.89
2023-05-24T23:38:38.036Z,13.78
2023-05-24T23:41:06.140Z,13.82
2023-05-24T23:43:35.748Z,13.82
2023-05-24T23:46:03.890Z,13.83
2023-05-24T23:48:32.028Z,13.76
2023-05-24T23:51:00.028Z,13.78
2023-05-24T23:53:28.093Z,13.78
2023-05-24T23:55:56.619Z,13.72
2023-05-24T23:58:25.084Z,13.74
